Tetney, United Kingdom
Current Conditions -  °F | °C
As of 1:50 PM on Tuesday 21 Oct 2014 (Local Time) from EGXS Reporting Station
Few Clouds Few Clouds  
Wind Chill: 11°   Ceiling: Unl
Heat Index: 11°   Visibility: 6mi
Dew Point:   Wind: 29mph
Humidity: 62%   Direction: 260°W
Pressure: 29.5"   Gusts: 47mph
Location:  53.49°N, 0.02°W
Report Text: EGXS 211250Z AUTO 26025G41KT 9999 // FEW039/// 11/04 Q0999
Loading
Personal Weather Stations






























Interactive Weather Map
Tropical Storm Tracking
New forecast layout! Learn more

10-Day Weather Forecast

Advertisements
Track Severe Weather on mobile